BERRYESSA (BER)

Elevation: 456' · PUTAH CR basin · Operator: US Bureau of Reclamation

Provisional data, subject to change.
Query executed Sunday at 10:56:43   clock

Select a sensor type for a plot of data.
Note: Reservoir Flows are daily averages.

Earlier

Date RES ELE    STORAGE    OUTFLOW    INFLOW    PPT INC   
 FEET   AF   CFS   CFS   INCHES  
01/31/2015 408.14 1000276 125 -66 0.00
02/01/2015 408.15 1000433 125 284 0.00
02/02/2015 408.11 999807 112 -174 0.00
02/03/2015 408.11 999807 105 120 0.00
02/04/2015 408.07 999180 93 -208 0.00
02/05/2015 408.04 998711 76 -145 0.00
02/06/2015 408.58 1007177 70 4358 0.05
02/07/2015 409.85 1027209 62 10161 2.42
02/08/2015 410.46 1036890 62 4979 0.11
02/09/2015 411.18 1048367 50 5851 1.17
02/10/2015 411.45 1052685 50 2273 0.00
02/11/2015 411.57 1054606 64 1047 0.00
02/12/2015 411.66 1056048 79 821 0.00
02/13/2015 411.74 1057331 85 752 0.00
02/14/2015 411.79 1058133 85 509 0.00
02/15/2015 411.84 1058935 85 520 0.00
02/16/2015 411.87 1059417 85 364 0.00
02/17/2015 411.92 1060219 85 525 0.00
02/18/2015 411.92 1060219 98 129 0.00
02/19/2015 411.95 1060701 106 364 0.00
02/20/2015 411.97 1061022 97 285 0.00
02/21/2015 411.96 1060862 85 55 0.00
02/22/2015 412.07 1062629 85 1027 0.00
02/23/2015 -- -- -- -- --
02/24/2015 -- -- -- -- --
02/25/2015 -- -- -- -- --
02/26/2015 -- -- -- -- --
02/27/2015 -- -- -- -- --
02/28/2015 -- -- -- -- --
03/01/2015 -- -- -- -- --

Later | Latest

Warning! This data is preliminary and subject to revision.

Show BER Map | Plot BER Data | 1 Month BER Data | Real-Time BER Data | BER Info